Latest Weather Observations for Red Rocks Point

IDW60801

Issued at 10:23 am WST Sunday 23 September 2018 (issued every 10 minutes, with the page automatically refreshed every 10 minutes)

About weather observations | Map of weather stations | Latest weather observations for WA | Other Formats
Station Details ID: 011053 Name: RED ROCKS POINT Lat: -32.20 Lon: 127.53 Height: 3.1 m
Data from the previous 72 hours. | See also: Recent months at Red Rocks Point
Date/Time
WST
Temp
°C
App
Temp
°C
Dew
Point
°C
Rel
Hum
%
Delta-T
°C
Wind Press
QNH
hPa
Press
MSL
hPa
Rain since
9am
mm
Dir  Spd
km/h
Gust
km/h
Spd
kts
Gust
kts
23/10:17am 24.0 20.0 10.3 42 7.5 NE 22 32 12 17 1024.5 1024.5 0.0
23/10:00am 29.7 24.3 1.2 16 13.8 NNE 19 28 10 15 1024.7 1024.7 0.0
23/09:30am 28.9 23.5 1.4 17 13.3 NNE 19 28 10 15 1025.2 1025.2 0.0
23/09:00am 27.6 21.2 1.2 18 12.6 NNE 24 39 13 21 1025.5 1025.5 0.0
23/08:30am 26.1 20.1 3.4 23 11.2 NE 24 32 13 17 1025.7 1025.7 0.0
23/08:00am 24.0 16.9 3.3 26 10.0 NE 30 43 16 23 1025.9 1025.9 0.0
23/07:30am 22.4 16.4 3.5 29 9.1 NNE 24 35 13 19 1025.8 1025.8 0.0
23/07:00am 19.9 14.8 4.0 35 7.6 NNE 20 32 11 17 1025.8 1025.8 0.0
23/06:30am 16.0 12.9 7.2 56 4.4 ENE 13 17 7 9 1025.7 1025.7 0.0
23/06:00am 14.4 10.7 4.4 51 4.6 NE 13 19 7 10 1025.4 1025.4 0.0
23/05:30am 13.4 8.5 4.3 54 4.2 NE 19 24 10 13 1024.8 1024.8 0.0
23/05:00am 13.2 8.8 4.6 56 3.9 NE 17 22 9 12 1024.7 1024.7 0.0
23/04:30am 12.8 8.7 4.5 57 3.8 NE 15 20 8 11 1024.8 1024.8 0.0
23/04:00am 13.1 9.1 4.8 57 3.8 NE 15 19 8 10 1024.9 1024.9 0.0
23/03:30am 13.6 9.6 4.7 55 4.1 NE 15 19 8 10 1024.9 1024.9 0.0
23/03:00am 14.1 10.2 5.2 55 4.1 NE 15 17 8 9 1024.5 1024.5 0.0
23/02:30am 15.0 11.0 5.0 51 4.7 NE 15 19 8 10 1024.6 1024.6 0.0
23/02:00am 16.0 11.6 4.7 47 5.3 NE 17 20 9 11 1024.7 1024.7 0.0
23/01:30am 17.3 12.4 4.9 44 5.9 NE 20 28 11 15 1024.6 1024.6 0.0
23/01:00am 18.3 12.7 5.5 43 6.2 NE 24 32 13 17 1024.5 1024.5 0.0
23/12:30am 18.8 12.9 5.6 42 6.5 NE 26 35 14 19 1024.5 1024.5 0.0
23/12:00am 19.0 13.3 5.1 40 6.7 NE 24 35 13 19 1024.5 1024.5 0.0
 
Date/Time
WST
Temp
°C
App
Temp
°C
Dew
Point
°C
Rel
Hum
%
Delta-T
°C
Wind Press
QNH
hPa
Press
MSL
hPa
Rain since
9am
mm
Dir  Spd
km/h
Gust
km/h
Spd
kts
Gust
kts
22/11:30pm 18.8 13.2 5.3 41 6.6 NE 24 32 13 17 1024.5 1024.5 0.0
22/11:00pm 18.7 13.3 6.2 44 6.1 NE 24 32 13 17 1024.8 1024.8 0.0
22/10:30pm 18.5 13.2 7.0 47 5.8 NE 24 30 13 16 1024.8 1024.8 0.0
22/10:00pm 18.1 13.4 7.8 51 5.2 NE 22 30 12 16 1025.0 1025.0 0.0
22/09:30pm 17.3 13.6 10.2 63 3.8 NE 20 28 11 15 1025.1 1025.1 0.0
22/09:00pm 16.0 13.8 12.0 77 2.2 NE 15 19 8 10 1025.3 1025.3 0.0
22/08:30pm 16.9 13.7 14.2 84 1.5 ENE 24 28 13 15 1025.3 1025.3 0.0
22/08:00pm 16.8 14.0 14.3 85 1.4 ENE 22 26 12 14 1025.3 1025.3 0.0
22/07:30pm 16.7 13.9 14.2 85 1.4 ENE 22 28 12 15 1025.1 1025.1 0.0
22/07:00pm 16.8 14.4 14.3 85 1.4 ENE 20 26 11 14 1024.8 1024.8 0.0
22/06:30pm 16.9 14.4 14.2 84 1.5 ENE 20 26 11 14 1024.3 1024.3 0.0
22/06:00pm 17.0 15.0 13.9 82 1.8 E 17 20 9 11 1023.9 1023.9 0.0
22/05:30pm 17.3 15.1 13.4 78 2.2 ENE 17 20 9 11 1023.4 1023.4 0.0
22/05:00pm 18.0 16.5 13.1 73 2.7 ENE 13 15 7 8 1023.2 1023.2 0.0
22/04:30pm 19.0 17.4 12.7 67 3.5 ESE 13 15 7 8 1022.9 1022.9 0.0
22/04:00pm 20.1 17.2 12.8 63 4.1 ENE 20 24 11 13 1022.4 1022.4 0.0
22/03:30pm 20.6 17.0 11.8 57 4.9 ENE 22 28 12 15 1022.3 1022.3 0.0
22/03:00pm 21.7 18.1 11.7 53 5.6 ENE 22 26 12 14 1022.3 1022.3 0.0
22/02:30pm 22.3 19.2 12.3 53 5.7 ENE 20 26 11 14 1022.4 1022.4 0.0
22/02:00pm 22.0 18.4 11.7 52 5.7 E 22 28 12 15 1022.5 1022.5 0.0
22/01:30pm 23.0 20.7 11.7 49 6.4 ENE 15 20 8 11 1022.7 1022.7 0.0
22/01:00pm 22.8 19.9 10.9 47 6.6 ESE 17 30 9 16 1022.8 1022.8 0.0
22/12:30pm 22.4 19.4 12.1 52 5.8 E 19 24 10 13 1023.2 1023.2 0.0
22/12:00pm 23.7 20.3 9.3 40 7.8 ESE 17 24 9 13 1023.6 1023.6 0.0
22/11:30am 23.3 19.7 12.0 49 6.4 ESE 22 30 12 16 1024.1 1024.1 0.0
22/11:00am 25.1 22.3 8.6 35 8.8 ESE 13 17 7 9 1024.6 1024.6 0.0
22/10:30am 29.9 24.8 0.5 15 14.1 ENE 17 30 9 16 1024.7 1024.7 0.0
22/10:00am 29.6 23.3 -0.7 14 14.2 NNE 22 32 12 17 1025.0 1025.0 0.0
22/09:30am 29.0 23.9 0.7 16 13.6 NNE 17 28 9 15 1025.4 1025.4 0.0
22/09:00am 27.2 22.5 3.0 21 11.9 N 17 24 9 13 1025.5 1025.5 0.0
22/08:30am 24.5 19.7 2.6 24 10.5 N 17 24 9 13 1025.6 1025.6 0.0
22/08:00am 22.3 18.0 3.4 29 9.0 N 15 26 8 14 1025.5 1025.5 0.0
22/07:30am 20.0 14.9 3.3 33 7.9 N 19 28 10 15 1025.3 1025.3 0.0
22/07:00am 17.5 12.8 3.4 39 6.5 N 17 26 9 14 1025.1 1025.1 0.0
22/06:30am 15.6 11.4 3.7 45 5.5 NNE 15 20 8 11 1025.0 1025.0 0.0
22/06:00am 14.2 10.4 3.9 50 4.7 NE 13 20 7 11 1024.9 1024.9 0.0
22/05:30am 12.3 8.9 3.8 56 3.8 NE 11 13 6 7 1024.6 1024.6 0.0
22/05:00am 11.7 8.2 3.5 57 3.6 NE 11 19 6 10 1024.4 1024.4 0.0
22/04:30am 12.0 6.9 3.3 55 3.8 N 19 22 10 12 1024.1 1024.1 0.0
22/04:00am 10.9 7.3 3.0 58 3.4 NNE 11 15 6 8 1023.9 1023.9 0.0
22/03:30am 11.7 7.8 3.2 56 3.7 NNE 13 17 7 9 1023.8 1023.8 0.0
22/03:00am 13.5 8.3 3.3 50 4.5 NNE 20 26 11 14 1023.6 1023.6 0.0
22/02:30am 14.0 8.5 3.8 50 4.6 N 22 33 12 18 1023.5 1023.5 0.0
22/02:00am 14.0 8.5 4.0 51 4.5 N 22 30 12 16 1023.5 1023.5 0.0
22/01:30am 14.9 9.8 4.3 49 4.9 NNE 20 30 11 16 1023.7 1023.7 0.0
22/01:00am 15.2 10.2 4.6 49 4.9 N 20 30 11 16 1023.9 1023.9 0.0
22/12:30am 15.4 10.1 4.8 49 5.0 NNE 22 28 12 15 1024.0 1024.0 0.0
22/12:00am 15.7 10.8 5.3 50 4.9 NNE 20 26 11 14 1024.1 1024.1 0.0
 
Date/Time
WST
Temp
°C
App
Temp
°C
Dew
Point
°C
Rel
Hum
%
Delta-T
°C
Wind Press
QNH
hPa
Press
MSL
hPa
Rain since
9am
mm
Dir  Spd
km/h
Gust
km/h
Spd
kts
Gust
kts
21/11:30pm 14.9 10.9 6.7 58 4.0 NE 17 26 9 14 1024.3 1024.3 0.0
21/11:00pm 14.8 10.5 6.9 59 3.8 NE 19 24 10 13 1024.5 1024.5 0.0
21/10:30pm 14.8 11.7 7.1 60 3.8 NE 13 20 7 11 1024.6 1024.6 0.0
21/10:00pm 15.2 11.3 7.3 59 3.9 NE 17 20 9 11 1024.6 1024.6 0.0
21/09:30pm 15.1 11.3 7.4 60 3.8 NE 17 20 9 11 1024.5 1024.5 0.0
21/09:00pm 15.0 11.9 8.7 66 3.2 NE 15 17 8 9 1024.5 1024.5 0.0
21/08:30pm 14.3 11.3 9.3 72 2.6 NE 15 19 8 10 1024.3 1024.3 0.0
21/08:00pm 15.1 12.7 12.8 86 1.3 NE 17 20 9 11 1024.2 1024.2 0.0
21/07:30pm 16.0 14.0 13.8 87 1.2 ENE 17 20 9 11 1024.2 1024.2 0.0
21/07:00pm 16.1 14.8 13.8 86 1.3 ENE 13 17 7 9 1024.0 1024.0 0.0
21/06:30pm 16.3 15.1 14.0 86 1.3 ENE 13 17 7 9 1023.6 1023.6 0.0
21/06:00pm 16.4 15.2 13.9 85 1.4 ENE 13 15 7 8 1023.2 1023.2 0.0
21/05:30pm 16.6 15.3 13.7 83 1.6 E 13 17 7 9 1022.8 1022.8 0.0
21/05:00pm 17.1 15.8 13.8 81 1.9 E 13 17 7 9 1022.4 1022.4 0.0
21/04:30pm 17.6 15.7 14.1 80 2.0 ENE 17 20 9 11 1022.0 1022.0 0.0
21/04:00pm 17.9 16.3 14.0 78 2.2 E 15 17 8 9 1021.8 1021.8 0.0
21/03:30pm 18.4 16.4 13.9 75 2.6 E 17 19 9 10 1021.6 1021.6 0.0
21/03:00pm 18.9 17.0 14.2 74 2.7 ENE 17 19 9 10 1021.4 1021.4 0.0
21/02:30pm 19.0 17.5 14.1 73 2.8 E 15 19 8 10 1021.3 1021.3 0.0
21/02:00pm 19.4 17.5 14.2 72 3.0 ENE 17 19 9 10 1021.3 1021.3 0.0
21/01:30pm 19.3 18.0 13.7 70 3.2 ENE 13 19 7 10 1021.7 1021.7 0.0
21/01:00pm 19.8 18.2 14.0 69 3.3 E 15 20 8 11 1022.0 1022.0 0.0
21/12:30pm 20.0 18.0 13.9 68 3.5 E 17 22 9 12 1022.3 1022.3 0.0
21/12:00pm 20.1 17.7 13.8 67 3.6 ESE 19 26 10 14 1022.5 1022.5 0.0
21/11:30am 19.6 16.8 13.1 66 3.7 SE 20 24 11 13 1023.1 1023.1 0.0
21/11:06am 21.8 19.0 11.2 51 5.9 SW 17 26 9 14 1023.5 1023.5 0.0
21/11:00am 27.0 23.8 5.3 25 11.1 NNW 11 20 6 11 1023.7 1023.7 0.0
21/10:30am 25.9 21.9 6.5 29 10.1 NNW 17 28 9 15 1024.0 1024.0 0.0
21/10:00am 24.5 20.7 7.6 34 8.9 N 17 24 9 13 1024.3 1024.3 0.0
21/09:30am 22.8 18.6 8.1 39 7.7 N 20 30 11 16 1024.6 1024.6 0.0
21/09:00am 21.5 17.4 8.7 44 6.7 N 20 28 11 15 1024.9 1024.9 0.0
21/08:30am 19.6 14.7 8.6 49 5.7 N 24 30 13 16 1025.1 1025.1 0.0
21/08:00am 17.8 13.9 10.7 63 3.8 N 22 33 12 18 1025.3 1025.3 0.0
21/07:30am 15.0 10.4 9.8 71 2.7 N 24 33 13 18 1025.3 1025.3 0.0
21/07:00am 12.8 8.3 10.2 84 1.3 N 24 37 13 20 1025.2 1025.2 0.0
21/06:30am 11.0 7.1 9.4 90 0.8 N 20 26 11 14 1025.0 1025.0 0.0
21/06:00am 9.8 5.7 8.6 92 0.6 N 20 28 11 15 1024.7 1024.7 0.0
21/05:30am 9.3 5.1 8.1 92 0.6 N 20 26 11 14 1024.3 1024.3 0.0
21/05:00am 9.4 5.2 8.2 92 0.6 N 20 30 11 16 1024.1 1024.1 0.0
21/04:30am 9.2 5.5 8.0 92 0.6 N 17 24 9 13 1024.0 1024.0 0.0
21/04:00am 8.8 5.8 7.6 92 0.6 NNE 13 19 7 10 1023.9 1023.9 0.0
21/03:30am 8.2 4.6 6.8 91 0.6 N 15 20 8 11 1023.8 1023.8 0.0
21/03:00am 8.8 4.6 7.4 91 0.7 N 19 24 10 13 1023.7 1023.7 0.0
21/02:30am 9.3 5.9 7.7 90 0.8 N 15 22 8 12 1023.8 1023.8 0.0
21/02:00am 9.4 5.6 7.7 89 0.8 NNE 17 24 9 13 1024.1 1024.1 0.0
21/01:30am 9.8 5.5 7.9 88 0.9 NNE 20 24 11 13 1024.1 1024.1 0.0
21/01:00am 10.1 6.4 8.0 87 1.0 NNE 17 20 9 11 1024.5 1024.5 0.0
21/12:30am 10.3 7.0 8.2 87 1.0 NE 15 20 8 11 1024.8 1024.8 0.0
21/12:00am 10.3 7.0 8.1 86 1.1 NE 15 20 8 11 1025.1 1025.1 0.0
 
Date/Time
WST
Temp
°C
App
Temp
°C
Dew
Point
°C
Rel
Hum
%
Delta-T
°C
Wind Press
QNH
hPa
Press
MSL
hPa
Rain since
9am
mm
Dir  Spd
km/h
Gust
km/h
Spd
kts
Gust
kts
20/11:30pm 10.6 7.0 8.2 85 1.2 NNE 17 22 9 12 1025.4 1025.4 0.0
20/11:00pm 10.7 7.1 8.3 85 1.2 NNE 17 22 9 12 1025.7 1025.7 0.0
20/10:30pm 10.7 7.8 8.3 85 1.2 NE 13 17 7 9 1026.1 1026.1 0.0
20/10:00pm 10.9 8.0 8.3 84 1.3 NE 13 17 7 9 1026.1 1026.1 0.0
20/09:30pm 11.0 8.2 8.4 84 1.3 NE 13 19 7 10 1026.2 1026.2 0.0
20/09:00pm 11.4 8.6 8.6 83 1.4 NNE 13 17 7 9 1026.2 1026.2 0.0
20/08:30pm 12.7 10.1 9.3 80 1.7 NE 13 17 7 9 1026.1 1026.1 0.0
20/08:00pm 14.3 10.4 10.9 80 1.8 ENE 22 26 12 14 1026.0 1026.0 0.0
20/07:30pm 14.2 10.2 10.6 79 1.9 E 22 26 12 14 1025.8 1025.8 0.0
20/07:00pm 14.2 10.2 10.6 79 1.9 E 22 26 12 14 1025.4 1025.4 0.0
20/06:30pm 14.3 10.4 10.7 79 1.9 E 22 26 12 14 1025.2 1025.2 0.0
20/06:00pm 14.3 10.7 10.5 78 2.0 E 20 24 11 13 1025.0 1025.0 0.0
20/05:30pm 14.3 10.7 10.5 78 2.0 ESE 20 24 11 13 1025.0 1025.0 0.0
20/05:00pm 14.6 11.2 10.6 77 2.1 ESE 19 22 10 12 1024.8 1024.8 0.0
20/04:30pm 14.9 11.9 10.7 76 2.2 SE 17 20 9 11 1024.7 1024.7 0.0
20/04:00pm 15.1 11.8 10.9 76 2.2 SE 19 22 10 12 1024.7 1024.7 0.0
20/03:30pm 15.6 12.4 11.4 76 2.3 SE 19 22 10 12 1024.6 1024.6 0.0
20/03:00pm 15.8 12.4 11.4 75 2.4 SSE 20 24 11 13 1024.6 1024.6 0.0
20/02:30pm 16.2 12.9 11.6 74 2.5 SSE 20 24 11 13 1024.7 1024.7 0.0
20/02:00pm 16.5 13.2 11.6 73 2.6 SSE 20 26 11 14 1024.8 1024.8 0.0
20/01:30pm 16.5 13.1 11.4 72 2.8 S 20 24 11 13 1024.9 1024.9 0.0
20/01:00pm 16.7 13.3 11.4 71 2.8 S 20 24 11 13 1025.4 1025.4 0.0
20/12:30pm 17.2 13.6 11.7 70 3.0 S 22 26 12 14 1025.9 1025.9 0.0
20/12:00pm 17.1 13.0 11.4 69 3.1 S 24 28 13 15 1026.2 1026.2 0.0
20/11:30am 18.0 14.8 11.3 65 3.6 S 19 22 10 12 1026.6 1026.6 0.0
20/11:00am 17.5 14.0 10.9 65 3.5 S 20 24 11 13 1026.9 1026.9 0.0
20/10:30am 17.1 13.8 9.5 61 4.0 S 17 19 9 10 1027.2 1027.2 0.0

Other Formats:

Comma delimited format used in spreadsheet applications
http://www.bom.gov.au/fwo/IDW60801/IDW60801.94644.axf

JavaScript Object Notation format (JSON) in row-major order
http://www.bom.gov.au/fwo/IDW60801/IDW60801.94644.json